Jack Holland — WDF3615 — position and weather

sailwx.info

Track history (hours):
 
Tides and Currents Weather Stations Pressure Air Temp Water Temp Dewpoint Dewpoint Depression Visibility Wind Speed Wind Dir Waves Ship Positions

Jack Holland

Owner: Norfolk Tug Company, Norfolk, VA. More information available from US FCC via Universal Licensing System and Coast Guard Vessel Documentation Center.

Last reported at 2016-Aug-14 17:14 UTC. Time now 2016-Aug-26 20:02 UTC.
Position N 36°56' W 076°20'.
Warning: this ship's position is 12 days out of date.

Length 22 m; draft 2.5 m.

Type: Tug. MMSI: 367442020.

Date/timePositionNaut miles runAvg speedWind from/ knotsBaromVisibWave heightAir tempDewpointWater temp
2016-Aug-14 17:14N 36°56' W 076°20'6 8.3
2016-Aug-14 16:33N 36°51' W 076°18'2 0.4
2016-Aug-14 11:33N 36°50' W 076°16'0 0.0
2016-Aug-14 10:32N 36°50' W 076°16'0 0.0
2016-Aug-14 09:31N 36°50' W 076°16'0 0.0
2016-Aug-14 08:33N 36°50' W 076°16'0 0.0
2016-Aug-14 07:33N 36°50' W 076°16'0 0.0
2016-Aug-14 06:30N 36°50' W 076°16'0 0.0
2016-Aug-14 04:33N 36°50' W 076°16'0 0.0
2016-Aug-14 03:33N 36°50' W 076°16'0 0.0
2016-Aug-14 02:33N 36°50' W 076°16'0 0.0
2016-Aug-14 01:30N 36°50' W 076°16'0 0.0
2016-Aug-14 00:33N 36°50' W 076°16'0 0.0
2016-Aug-13 23:33N 36°50' W 076°16'0 0.0
2016-Aug-13 22:33N 36°50' W 076°16'0 0.0
2016-Aug-13 21:32N 36°50' W 076°16'0 0.0
2016-Aug-13 20:26N 36°50' W 076°16'0 0.0
2016-Aug-13 19:18N 36°50' W 076°16'0 0.0
2016-Aug-13 18:33N 36°50' W 076°16'0 0.0
2016-Aug-13 17:33N 36°50' W 076°16'0 0.0
2016-Aug-13 16:34N 36°50' W 076°16'0 0.0
2016-Aug-13 15:33N 36°50' W 076°16'0 0.1
2016-Aug-13 14:33N 36°50' W 076°16'1 1.4
2016-Aug-13 13:33N 36°49' W 076°17'5 4.7
2016-Aug-13 12:33N 36°54' W 076°20'3 0.1
2016-Aug-12 00:05N 36°56' W 076°20'4 7.7
2016-Aug-11 23:33N 36°52' W 076°19'3 3.1
2016-Aug-11 22:33N 36°49' W 076°17'2 2.1
2016-Aug-11 21:33N 36°50' W 076°15'2 2.1
2016-Aug-11 20:33N 36°49' W 076°17'1 1.3
2016-Aug-11 19:33N 36°50' W 076°16'0 0.0
2016-Aug-11 18:33N 36°50' W 076°16'0 0.0
2016-Aug-11 17:33N 36°50' W 076°16'0 0.0
2016-Aug-11 16:33N 36°50' W 076°16'0 0.0
2016-Aug-11 15:33N 36°50' W 076°16'0 0.0
2016-Aug-11 14:33N 36°50' W 076°16'0 0.0
2016-Aug-11 13:33N 36°50' W 076°16'0 0.0
2016-Aug-11 12:33N 36°50' W 076°16'0 0.0
2016-Aug-11 11:34N 36°50' W 076°16'0 0.0
2016-Aug-11 10:34N 36°50' W 076°16'0 0.0
2016-Aug-11 09:34N 36°50' W 076°16'0 0.0
2016-Aug-11 08:34N 36°50' W 076°16'0 0.0
2016-Aug-11 07:34N 36°50' W 076°16'0 0.0
2016-Aug-11 06:30N 36°50' W 076°16'0 0.0
2016-Aug-11 05:34N 36°50' W 076°16'0 0.0
2016-Aug-11 04:34N 36°50' W 076°16'0 0.0
2016-Aug-11 03:34N 36°50' W 076°16'0 0.0
2016-Aug-11 02:34N 36°50' W 076°16'0 0.0
2016-Aug-11 01:33N 36°50' W 076°16'0 0.0
2016-Aug-11 00:34N 36°50' W 076°16'0 0.0
2016-Aug-10 23:33N 36°50' W 076°16'0 0.0
2016-Aug-10 22:34N 36°50' W 076°16'0 0.0
2016-Aug-10 21:34N 36°50' W 076°16'2 2.5
2016-Aug-10 20:33N 36°52' W 076°19'4 0.5
2016-Aug-10 12:23N 36°56' W 076°20'3 2.3
2016-Aug-10 11:07N 36°53' W 076°20'2 4.1
2016-Aug-10 10:33N 36°51' W 076°18'2 2.0
2016-Aug-10 09:33N 36°50' W 076°16'0 0.0
2016-Aug-10 08:33N 36°50' W 076°16'0 0.0
2016-Aug-10 07:33N 36°50' W 076°16'0 0.0
2016-Aug-10 06:30N 36°50' W 076°16'0 0.0
2016-Aug-10 05:34N 36°50' W 076°16'0 0.0
2016-Aug-10 04:33N 36°50' W 076°16'0 0.0
2016-Aug-10 03:33N 36°50' W 076°16'0 0.0
2016-Aug-10 02:34N 36°50' W 076°16'0 0.0
2016-Aug-10 01:33N 36°50' W 076°16'0 0.0
2016-Aug-10 00:33N 36°50' W 076°16'0 0.0
2016-Aug-09 23:33N 36°50' W 076°16'0 0.0
2016-Aug-09 22:29N 36°50' W 076°16'0 0.0
2016-Aug-09 21:17N 36°50' W 076°16'0 0.0
2016-Aug-09 20:06N 36°50' W 076°16'0 0.0
2016-Aug-09 19:32N 36°50' W 076°16'0 0.0
2016-Aug-09 18:16N 36°50' W 076°16'0 0.0
2016-Aug-09 17:24N 36°50' W 076°16'0 0.0
2016-Aug-09 16:31N 36°50' W 076°16'0 0.0
2016-Aug-09 15:30N 36°50' W 076°16'4 3.3
2016-Aug-09 14:25N 36°52' W 076°20'1 0.2
2016-Aug-09 11:11N 36°53' W 076°20'3 5.0
2016-Aug-09 10:30N 36°51' W 076°17'1 1.0
2016-Aug-09 09:33N 36°50' W 076°16'0 0.0
2016-Aug-09 08:33N 36°50' W 076°16'0 0.0
2016-Aug-09 07:33N 36°50' W 076°16'0 0.0
2016-Aug-09 05:33N 36°50' W 076°16'0 0.0
2016-Aug-09 04:33N 36°50' W 076°16'0 0.0
2016-Aug-09 03:33N 36°50' W 076°16'0 0.0
2016-Aug-09 02:33N 36°50' W 076°16'0 0.0
2016-Aug-09 01:33N 36°50' W 076°16'0 0.0
2016-Aug-09 00:33N 36°50' W 076°16'0 0.0
2016-Aug-08 23:33N 36°50' W 076°16'0 0.0
2016-Aug-08 22:33N 36°50' W 076°16'0 0.0
2016-Aug-08 21:33N 36°50' W 076°16'0 0.0
2016-Aug-08 20:33N 36°50' W 076°16'0 0.0
2016-Aug-08 19:34N 36°50' W 076°16'0 0.0
2016-Aug-08 18:34N 36°50' W 076°16'0 0.0
2016-Aug-08 17:33N 36°50' W 076°16'0 0.0
2016-Aug-08 16:33N 36°50' W 076°16'0 0.0
2016-Aug-08 15:33N 36°50' W 076°16'0 0.0
2016-Aug-08 14:33N 36°50' W 076°16'0 0.0
2016-Aug-08 13:33N 36°50' W 076°16'0 0.0
2016-Aug-08 12:33N 36°50' W 076°16'0 0.0
2016-Aug-08 11:33N 36°50' W 076°16'0 0.0
2016-Aug-08 10:33N 36°50' W 076°16'0 0.0
2016-Aug-08 09:33N 36°50' W 076°16'0 0.0
2016-Aug-08 08:33N 36°50' W 076°16'0 0.0
2016-Aug-08 07:33N 36°50' W 076°16'0 0.0
2016-Aug-08 06:30N 36°50' W 076°16'0 0.0
2016-Aug-08 05:33N 36°50' W 076°16'0 0.0
2016-Aug-08 04:33N 36°50' W 076°16'0 0.0
2016-Aug-08 03:33N 36°50' W 076°16'0 0.0
2016-Aug-08 02:33N 36°50' W 076°16'0 0.0
2016-Aug-08 01:33N 36°50' W 076°16'0 0.0
2016-Aug-08 00:33N 36°50' W 076°16'0 0.0
2016-Aug-07 23:33N 36°50' W 076°16'0 0.0
2016-Aug-07 22:33N 36°50' W 076°16'0 0.0
2016-Aug-07 21:33N 36°50' W 076°16'0 0.0
2016-Aug-07 20:33N 36°50' W 076°16'0 0.0
2016-Aug-07 19:33N 36°50' W 076°16'0 0.0
2016-Aug-07 18:30N 36°50' W 076°16'0 0.0
2016-Aug-07 17:33N 36°50' W 076°16'0 0.0
2016-Aug-07 16:34N 36°50' W 076°16'0 0.0
2016-Aug-07 15:33N 36°50' W 076°16'0 0.0
2016-Aug-07 14:33N 36°50' W 076°16'0 0.0
2016-Aug-07 13:33N 36°50' W 076°16'0 0.0
2016-Aug-07 12:33N 36°50' W 076°16'0 0.0
2016-Aug-07 11:33N 36°50' W 076°16'0 0.0
2016-Aug-07 10:33N 36°50' W 076°16'0 0.0
2016-Aug-07 09:33N 36°50' W 076°16'0 0.0
2016-Aug-07 08:33N 36°50' W 076°16'0 0.0
2016-Aug-07 07:33N 36°50' W 076°16'0 0.0
2016-Aug-07 06:30N 36°50' W 076°16'0 0.0
2016-Aug-07 04:33N 36°50' W 076°16'0 0.0
2016-Aug-07 03:33N 36°50' W 076°16'0 0.0
2016-Aug-07 02:33N 36°50' W 076°16'0 0.0
2016-Aug-07 01:33N 36°50' W 076°16'0 0.0
2016-Aug-07 00:33N 36°50' W 076°16'0 0.0
2016-Aug-06 23:33N 36°50' W 076°16'0 0.0
2016-Aug-06 22:33N 36°50' W 076°16'0 0.0
2016-Aug-06 21:33N 36°50' W 076°16'0 0.0
2016-Aug-06 20:33N 36°50' W 076°16'0 0.0
2016-Aug-06 19:33N 36°50' W 076°16'0 0.0
2016-Aug-06 18:33N 36°50' W 076°16'0 0.0
2016-Aug-06 17:33N 36°50' W 076°16'0 0.0
2016-Aug-06 16:33N 36°50' W 076°16'0 0.0
2016-Aug-06 15:33N 36°50' W 076°16'0 0.0
2016-Aug-06 14:33N 36°50' W 076°16'0 0.0
2016-Aug-06 13:33N 36°50' W 076°16'0 0.0
2016-Aug-06 12:33N 36°50' W 076°16'0 0.0
2016-Aug-06 11:33N 36°50' W 076°16'0 0.0
2016-Aug-06 10:33N 36°50' W 076°16'0 0.0
2016-Aug-06 09:33N 36°50' W 076°16'0 0.0
2016-Aug-06 08:33N 36°50' W 076°16'0 0.0
2016-Aug-06 07:33N 36°50' W 076°16'0 0.0
2016-Aug-06 04:33N 36°50' W 076°16'0 0.0
2016-Aug-06 03:33N 36°50' W 076°16'0 0.0
2016-Aug-06 02:33N 36°50' W 076°16'0 0.0
2016-Aug-06 01:33N 36°50' W 076°16'0 0.0
2016-Aug-05 22:33N 36°50' W 076°16'0 0.0
2016-Aug-05 20:33N 36°50' W 076°16'0 0.0
2016-Aug-05 18:25N 36°50' W 076°16'0 0.0
2016-Aug-05 17:33N 36°50' W 076°16'0 0.0
2016-Aug-05 15:33N 36°50' W 076°16'0 0.0
2016-Aug-05 14:33N 36°50' W 076°16'0 0.0
2016-Aug-05 13:32N 36°50' W 076°16'0 0.0
2016-Aug-05 12:32N 36°50' W 076°16'0 0.0
2016-Aug-05 11:32N 36°50' W 076°16'0 0.0
2016-Aug-05 10:33N 36°50' W 076°16'0 0.0
2016-Aug-05 09:33N 36°50' W 076°16'0 0.0
2016-Aug-05 08:33N 36°50' W 076°16'0 0.0
2016-Aug-05 07:33N 36°50' W 076°16'0 0.0
2016-Aug-05 06:30N 36°50' W 076°16'0 0.0
2016-Aug-05 04:33N 36°50' W 076°16'0 0.0
2016-Aug-05 03:33N 36°50' W 076°16'0 0.0
2016-Aug-05 02:33N 36°50' W 076°16'0 0.0
2016-Aug-05 01:33N 36°50' W 076°16'0 0.0
2016-Aug-05 00:33N 36°50' W 076°16'0 0.0
2016-Aug-04 23:33N 36°50' W 076°16'0 0.0
2016-Aug-04 22:33N 36°50' W 076°16'0 0.0
2016-Aug-04 21:33N 36°50' W 076°16'0 0.0
2016-Aug-04 20:33N 36°50' W 076°16'1 1.4
2016-Aug-04 19:33N 36°51' W 076°18'3 3.1
2016-Aug-04 18:31N 36°53' W 076°21'  
Track history (hours):
 
Tides and Currents Weather Stations Pressure Air Temp Water Temp Dewpoint Dewpoint Depression Visibility Wind Speed Wind Dir Waves Ship Positions

Jack Holland

Owner: Norfolk Tug Company, Norfolk, VA. More information available from US FCC via Universal Licensing System and Coast Guard Vessel Documentation Center.

Last reported at 2016-Aug-14 17:14 UTC. Time now 2016-Aug-26 20:02 UTC.
Position N 36°56' W 076°20'.
Warning: this ship's position is 12 days out of date.

Length 22 m; draft 2.5 m.

Type: Tug. MMSI: 367442020.

Date/timePositionNaut miles runAvg speedWind from/ knotsBaromVisibWave heightAir tempDewpointWater temp
2016-Aug-14 17:14N 36°56' W 076°20'6 8.3
2016-Aug-14 16:33N 36°51' W 076°18'2 0.4
2016-Aug-14 11:33N 36°50' W 076°16'0 0.0
2016-Aug-14 10:32N 36°50' W 076°16'0 0.0
2016-Aug-14 09:31N 36°50' W 076°16'0 0.0
2016-Aug-14 08:33N 36°50' W 076°16'0 0.0
2016-Aug-14 07:33N 36°50' W 076°16'0 0.0
2016-Aug-14 06:30N 36°50' W 076°16'0 0.0
2016-Aug-14 04:33N 36°50' W 076°16'0 0.0
2016-Aug-14 03:33N 36°50' W 076°16'0 0.0
2016-Aug-14 02:33N 36°50' W 076°16'0 0.0
2016-Aug-14 01:30N 36°50' W 076°16'0 0.0
2016-Aug-14 00:33N 36°50' W 076°16'0 0.0
2016-Aug-13 23:33N 36°50' W 076°16'0 0.0
2016-Aug-13 22:33N 36°50' W 076°16'0 0.0
2016-Aug-13 21:32N 36°50' W 076°16'0 0.0
2016-Aug-13 20:26N 36°50' W 076°16'0 0.0
2016-Aug-13 19:18N 36°50' W 076°16'0 0.0
2016-Aug-13 18:33N 36°50' W 076°16'0 0.0
2016-Aug-13 17:33N 36°50' W 076°16'0 0.0
2016-Aug-13 16:34N 36°50' W 076°16'0 0.0
2016-Aug-13 15:33N 36°50' W 076°16'0 0.1
2016-Aug-13 14:33N 36°50' W 076°16'1 1.4
2016-Aug-13 13:33N 36°49' W 076°17'5 4.7
2016-Aug-13 12:33N 36°54' W 076°20'3 0.1
2016-Aug-12 00:05N 36°56' W 076°20'4 7.7
2016-Aug-11 23:33N 36°52' W 076°19'3 3.1
2016-Aug-11 22:33N 36°49' W 076°17'2 2.1
2016-Aug-11 21:33N 36°50' W 076°15'2 2.1
2016-Aug-11 20:33N 36°49' W 076°17'1 1.3
2016-Aug-11 19:33N 36°50' W 076°16'0 0.0
2016-Aug-11 18:33N 36°50' W 076°16'0 0.0
2016-Aug-11 17:33N 36°50' W 076°16'0 0.0
2016-Aug-11 16:33N 36°50' W 076°16'0 0.0
2016-Aug-11 15:33N 36°50' W 076°16'0 0.0
2016-Aug-11 14:33N 36°50' W 076°16'0 0.0
2016-Aug-11 13:33N 36°50' W 076°16'0 0.0
2016-Aug-11 12:33N 36°50' W 076°16'0 0.0
2016-Aug-11 11:34N 36°50' W 076°16'0 0.0
2016-Aug-11 10:34N 36°50' W 076°16'0 0.0
2016-Aug-11 09:34N 36°50' W 076°16'0 0.0
2016-Aug-11 08:34N 36°50' W 076°16'0 0.0
2016-Aug-11 07:34N 36°50' W 076°16'0 0.0
2016-Aug-11 06:30N 36°50' W 076°16'0 0.0
2016-Aug-11 05:34N 36°50' W 076°16'0 0.0
2016-Aug-11 04:34N 36°50' W 076°16'0 0.0
2016-Aug-11 03:34N 36°50' W 076°16'0 0.0
2016-Aug-11 02:34N 36°50' W 076°16'0 0.0
2016-Aug-11 01:33N 36°50' W 076°16'0 0.0
2016-Aug-11 00:34N 36°50' W 076°16'0 0.0
2016-Aug-10 23:33N 36°50' W 076°16'0 0.0
2016-Aug-10 22:34N 36°50' W 076°16'0 0.0
2016-Aug-10 21:34N 36°50' W 076°16'2 2.5
2016-Aug-10 20:33N 36°52' W 076°19'4 0.5
2016-Aug-10 12:23N 36°56' W 076°20'3 2.3
2016-Aug-10 11:07N 36°53' W 076°20'2 4.1
2016-Aug-10 10:33N 36°51' W 076°18'2 2.0
2016-Aug-10 09:33N 36°50' W 076°16'0 0.0
2016-Aug-10 08:33N 36°50' W 076°16'0 0.0
2016-Aug-10 07:33N 36°50' W 076°16'0 0.0
2016-Aug-10 06:30N 36°50' W 076°16'0 0.0
2016-Aug-10 05:34N 36°50' W 076°16'0 0.0
2016-Aug-10 04:33N 36°50' W 076°16'0 0.0
2016-Aug-10 03:33N 36°50' W 076°16'0 0.0
2016-Aug-10 02:34N 36°50' W 076°16'0 0.0
2016-Aug-10 01:33N 36°50' W 076°16'0 0.0
2016-Aug-10 00:33N 36°50' W 076°16'0 0.0
2016-Aug-09 23:33N 36°50' W 076°16'0 0.0
2016-Aug-09 22:29N 36°50' W 076°16'0 0.0
2016-Aug-09 21:17N 36°50' W 076°16'0 0.0
2016-Aug-09 20:06N 36°50' W 076°16'0 0.0
2016-Aug-09 19:32N 36°50' W 076°16'0 0.0
2016-Aug-09 18:16N 36°50' W 076°16'0 0.0
2016-Aug-09 17:24N 36°50' W 076°16'0 0.0
2016-Aug-09 16:31N 36°50' W 076°16'0 0.0
2016-Aug-09 15:30N 36°50' W 076°16'4 3.3
2016-Aug-09 14:25N 36°52' W 076°20'1 0.2
2016-Aug-09 11:11N 36°53' W 076°20'3 5.0
2016-Aug-09 10:30N 36°51' W 076°17'1 1.0
2016-Aug-09 09:33N 36°50' W 076°16'0 0.0
2016-Aug-09 08:33N 36°50' W 076°16'0 0.0
2016-Aug-09 07:33N 36°50' W 076°16'0 0.0
2016-Aug-09 05:33N 36°50' W 076°16'0 0.0
2016-Aug-09 04:33N 36°50' W 076°16'0 0.0
2016-Aug-09 03:33N 36°50' W 076°16'0 0.0
2016-Aug-09 02:33N 36°50' W 076°16'0 0.0
2016-Aug-09 01:33N 36°50' W 076°16'0 0.0
2016-Aug-09 00:33N 36°50' W 076°16'0 0.0
2016-Aug-08 23:33N 36°50' W 076°16'0 0.0
2016-Aug-08 22:33N 36°50' W 076°16'0 0.0
2016-Aug-08 21:33N 36°50' W 076°16'0 0.0
2016-Aug-08 20:33N 36°50' W 076°16'0 0.0
2016-Aug-08 19:34N 36°50' W 076°16'0 0.0
2016-Aug-08 18:34N 36°50' W 076°16'0 0.0
2016-Aug-08 17:33N 36°50' W 076°16'0 0.0
2016-Aug-08 16:33N 36°50' W 076°16'0 0.0
2016-Aug-08 15:33N 36°50' W 076°16'0 0.0
2016-Aug-08 14:33N 36°50' W 076°16'0 0.0
2016-Aug-08 13:33N 36°50' W 076°16'0 0.0
2016-Aug-08 12:33N 36°50' W 076°16'0 0.0
2016-Aug-08 11:33N 36°50' W 076°16'0 0.0
2016-Aug-08 10:33N 36°50' W 076°16'0 0.0
2016-Aug-08 09:33N 36°50' W 076°16'0 0.0
2016-Aug-08 08:33N 36°50' W 076°16'0 0.0
2016-Aug-08 07:33N 36°50' W 076°16'0 0.0
2016-Aug-08 06:30N 36°50' W 076°16'0 0.0
2016-Aug-08 05:33N 36°50' W 076°16'0 0.0
2016-Aug-08 04:33N 36°50' W 076°16'0 0.0
2016-Aug-08 03:33N 36°50' W 076°16'0 0.0
2016-Aug-08 02:33N 36°50' W 076°16'0 0.0
2016-Aug-08 01:33N 36°50' W 076°16'0 0.0
2016-Aug-08 00:33N 36°50' W 076°16'0 0.0
2016-Aug-07 23:33N 36°50' W 076°16'0 0.0
2016-Aug-07 22:33N 36°50' W 076°16'0 0.0
2016-Aug-07 21:33N 36°50' W 076°16'0 0.0
2016-Aug-07 20:33N 36°50' W 076°16'0 0.0
2016-Aug-07 19:33N 36°50' W 076°16'0 0.0
2016-Aug-07 18:30N 36°50' W 076°16'0 0.0
2016-Aug-07 17:33N 36°50' W 076°16'0 0.0
2016-Aug-07 16:34N 36°50' W 076°16'0 0.0
2016-Aug-07 15:33N 36°50' W 076°16'0 0.0
2016-Aug-07 14:33N 36°50' W 076°16'0 0.0
2016-Aug-07 13:33N 36°50' W 076°16'0 0.0
2016-Aug-07 12:33N 36°50' W 076°16'0 0.0
2016-Aug-07 11:33N 36°50' W 076°16'0 0.0
2016-Aug-07 10:33N 36°50' W 076°16'0 0.0
2016-Aug-07 09:33N 36°50' W 076°16'0 0.0
2016-Aug-07 08:33N 36°50' W 076°16'0 0.0
2016-Aug-07 07:33N 36°50' W 076°16'0 0.0
2016-Aug-07 06:30N 36°50' W 076°16'0 0.0
2016-Aug-07 04:33N 36°50' W 076°16'0 0.0
2016-Aug-07 03:33N 36°50' W 076°16'0 0.0
2016-Aug-07 02:33N 36°50' W 076°16'0 0.0
2016-Aug-07 01:33N 36°50' W 076°16'0 0.0
2016-Aug-07 00:33N 36°50' W 076°16'0 0.0
2016-Aug-06 23:33N 36°50' W 076°16'0 0.0
2016-Aug-06 22:33N 36°50' W 076°16'0 0.0
2016-Aug-06 21:33N 36°50' W 076°16'0 0.0
2016-Aug-06 20:33N 36°50' W 076°16'0 0.0
2016-Aug-06 19:33N 36°50' W 076°16'0 0.0
2016-Aug-06 18:33N 36°50' W 076°16'0 0.0
2016-Aug-06 17:33N 36°50' W 076°16'0 0.0
2016-Aug-06 16:33N 36°50' W 076°16'0 0.0
2016-Aug-06 15:33N 36°50' W 076°16'0 0.0
2016-Aug-06 14:33N 36°50' W 076°16'0 0.0
2016-Aug-06 13:33N 36°50' W 076°16'0 0.0
2016-Aug-06 12:33N 36°50' W 076°16'0 0.0
2016-Aug-06 11:33N 36°50' W 076°16'0 0.0
2016-Aug-06 10:33N 36°50' W 076°16'0 0.0
2016-Aug-06 09:33N 36°50' W 076°16'0 0.0
2016-Aug-06 08:33N 36°50' W 076°16'0 0.0
2016-Aug-06 07:33N 36°50' W 076°16'0 0.0
2016-Aug-06 04:33N 36°50' W 076°16'0 0.0
2016-Aug-06 03:33N 36°50' W 076°16'0 0.0
2016-Aug-06 02:33N 36°50' W 076°16'0 0.0
2016-Aug-06 01:33N 36°50' W 076°16'0 0.0
2016-Aug-05 22:33N 36°50' W 076°16'0 0.0
2016-Aug-05 20:33N 36°50' W 076°16'0 0.0
2016-Aug-05 18:25N 36°50' W 076°16'0 0.0
2016-Aug-05 17:33N 36°50' W 076°16'0 0.0
2016-Aug-05 15:33N 36°50' W 076°16'0 0.0
2016-Aug-05 14:33N 36°50' W 076°16'0 0.0
2016-Aug-05 13:32N 36°50' W 076°16'0 0.0
2016-Aug-05 12:32N 36°50' W 076°16'0 0.0
2016-Aug-05 11:32N 36°50' W 076°16'0 0.0
2016-Aug-05 10:33N 36°50' W 076°16'0 0.0
2016-Aug-05 09:33N 36°50' W 076°16'0 0.0
2016-Aug-05 08:33N 36°50' W 076°16'0 0.0
2016-Aug-05 07:33N 36°50' W 076°16'0 0.0
2016-Aug-05 06:30N 36°50' W 076°16'0 0.0
2016-Aug-05 04:33N 36°50' W 076°16'0 0.0
2016-Aug-05 03:33N 36°50' W 076°16'0 0.0
2016-Aug-05 02:33N 36°50' W 076°16'0 0.0
2016-Aug-05 01:33N 36°50' W 076°16'0 0.0
2016-Aug-05 00:33N 36°50' W 076°16'0 0.0
2016-Aug-04 23:33N 36°50' W 076°16'0 0.0
2016-Aug-04 22:33N 36°50' W 076°16'0 0.0
2016-Aug-04 21:33N 36°50' W 076°16'0 0.0
2016-Aug-04 20:33N 36°50' W 076°16'1 1.4
2016-Aug-04 19:33N 36°51' W 076°18'3 3.1
2016-Aug-04 18:31N 36°53' W 076°21'  

Dump ship's entire track history